Strona główna
METAR-TAF:

METAR-TAF

Lotnisko :

Hazleton, Pensylwania, Stany Zjednoczone

Szerokość geograficzna: 40-59-12N, Długość geograficzna: 075-59-42W, wysokość: 489 m

Aktualna obserwacja pogody

Raport powstał 13 minut temu, godzina 22:15 UTC
Wiatr 6 kt od południowo-południowy wschód
Temperatura 1°C
Wilgotność 64%
Ciśnienie 1026 hPa
Widzialność: 16.1 km
Rozproszone chmury na wysokości 5000 ft

METAR: KHZL 082215Z AUTO 16006KT 10SM SCT050 01/M05 A3031 RMK AO2

czas: 17:28 (22:28 UTC)


TAF: brakujący

Obserwacja i prognoza pogody dla ponad 4000 lotnisk (raport METAR i TAF).

Dostępne stacje oznaczono żółtymi i czerwonymi punktami na mapie.

Najedź kursorem aby zobaczyć nazwę stacji.

Kliknij aby zobaczyć obserwacje i prognozy pogody.

Aby zmienić mapę: kliknij na zielony przycisk z czarnym krzyżykiem, aby powiększyć; na zielony przycisk z myślnikiem, aby pomniejszyć; na zielone strzałki, aby przejść do map sąsiednich.


METAR-TAF: